Time;durP1;ratioP1;P1;durP2;ratioP2;P2;SDS_P1;SDS_P2;PMS_P1;PMS_P2;Temp;Humidity;BMP_temperature;BMP_pressure;BME280_temperature;BME280_humidity;BME280_pressure;Samples;Min_cycle;Max_cycle;Signal;HPM_P1;HPM_P2
2023/02/01 00:01:07;;;;;;;20.17;4.77;;;5.90;99.90;;;;;;5071692;28;20423;-49
2023/02/01 00:03:33;;;;;;;22.03;5.27;;;5.80;99.90;;;;;;5071727;28;20428;-48
2023/02/01 00:06:01;;;;;;;21.93;4.70;;;6.00;99.90;;;;;;5071775;28;20405;-48
2023/02/01 00:08:28;;;;;;;16.73;5.70;;;6.00;99.90;;;;;;5071387;28;20470;-48
2023/02/01 00:11:02;;;;;;;15.20;4.50;;;5.60;99.90;;;;;;5071752;28;20769;-48
2023/02/01 00:13:30;;;;;;;21.37;4.60;;;5.60;99.90;;;;;;5071420;28;20427;-48
2023/02/01 00:16:04;;;;;;;22.57;5.77;;;5.70;99.90;;;;;;5071538;28;20414;-48
2023/02/01 00:18:32;;;;;;;25.73;5.20;;;5.60;99.90;;;;;;5071320;28;20809;-49
2023/02/01 00:20:58;;;;;;;21.77;4.43;;;5.80;99.90;;;;;;5073638;28;20445;-48
2023/02/01 00:23:25;;;;;;;16.87;4.87;;;5.80;99.90;;;;;;5075560;28;20975;-49
2023/02/01 00:25:52;;;;;;;20.23;5.40;;;5.70;99.90;;;;;;5075526;28;20423;-48
2023/02/01 00:28:18;;;;;;;20.03;4.80;;;5.20;99.90;;;;;;5075062;28;20456;-49
2023/02/01 00:30:45;;;;;;;20.40;5.07;;;5.60;99.90;;;;;;5075390;28;20792;-49
2023/02/01 00:33:13;;;;;;;24.40;5.13;;;5.50;99.90;;;;;;5057450;28;20425;-49
2023/02/01 00:35:39;;;;;;;21.97;4.70;;;5.50;99.90;;;;;;5075372;28;20431;-49
2023/02/01 00:38:06;;;;;;;15.33;3.90;;;5.40;99.90;;;;;;5075048;28;20401;-48
2023/02/01 00:40:32;;;;;;;14.50;4.23;;;5.40;99.90;;;;;;5057186;28;20421;-48
2023/02/01 00:42:59;;;;;;;17.53;4.43;;;5.50;99.90;;;;;;5057032;28;20460;-48
2023/02/01 00:45:26;;;;;;;18.33;4.23;;;5.60;99.90;;;;;;5075419;28;20428;-49
2023/02/01 00:47:52;;;;;;;22.70;4.30;;;5.50;99.90;;;;;;5075020;28;20405;-48
2023/02/01 00:50:20;;;;;;;24.50;5.17;;;5.30;99.90;;;;;;5056722;28;20450;-48
2023/02/01 00:52:47;;;;;;;14.97;4.47;;;5.40;99.90;;;;;;5057162;28;20431;-49
2023/02/01 00:55:14;;;;;;;16.63;4.67;;;5.60;99.90;;;;;;5074816;28;20460;-47
2023/02/01 00:57:40;;;;;;;19.80;4.00;;;5.60;99.90;;;;;;5056850;28;20451;-49
2023/02/01 01:00:08;;;;;;;22.80;4.80;;;5.80;99.90;;;;;;5074559;28;20429;-49
2023/02/01 01:02:36;;;;;;;13.93;4.23;;;5.80;99.90;;;;;;5056786;28;20931;-48
2023/02/01 01:05:03;;;;;;;19.37;4.50;;;5.60;99.90;;;;;;5056806;28;20467;-48
2023/02/01 01:07:31;;;;;;;15.60;3.80;;;5.60;99.90;;;;;;5074840;28;20415;-48
2023/02/01 01:09:58;;;;;;;15.03;4.10;;;5.20;99.90;;;;;;5074377;28;20477;-48
2023/02/01 01:12:24;;;;;;;14.17;3.63;;;5.70;99.90;;;;;;5056634;28;20486;-48
2023/02/01 01:14:51;;;;;;;16.60;3.57;;;6.20;99.90;;;;;;5056515;28;21030;-48
2023/02/01 01:17:17;;;;;;;14.07;3.80;;;5.80;99.90;;;;;;5074968;28;20921;-48
2023/02/01 01:19:44;;;;;;;13.70;3.90;;;5.80;99.90;;;;;;5074247;28;20454;-48
2023/02/01 01:22:11;;;;;;;21.20;3.77;;;5.70;99.90;;;;;;5056612;28;20959;-49
2023/02/01 01:24:38;;;;;;;15.63;4.00;;;5.10;99.90;;;;;;5074399;28;20477;-48
2023/02/01 01:27:05;;;;;;;20.40;4.37;;;5.90;99.90;;;;;;5074724;28;20401;-48
2023/02/01 01:29:32;;;;;;;13.73;4.00;;;5.70;99.90;;;;;;5074122;28;20482;-48
2023/02/01 01:31:58;;;;;;;18.70;4.27;;;5.00;99.90;;;;;;5055604;28;20449;-47
2023/02/01 01:34:25;;;;;;;17.20;3.53;;;5.60;99.90;;;;;;5074559;28;20539;-48
2023/02/01 01:36:51;;;;;;;21.23;4.27;;;5.70;99.90;;;;;;5074779;28;20427;-49
2023/02/01 01:39:18;;;;;;;21.40;4.13;;;5.60;99.90;;;;;;5056142;28;20542;-47
2023/02/01 01:41:46;;;;;;;18.90;4.40;;;5.80;99.90;;;;;;5074465;28;20698;-48
2023/02/01 01:44:57;;;;;;;23.07;4.80;;;5.70;99.90;;;;;;5056455;28;20481;-48
2023/02/01 01:47:25;;;;;;;21.23;5.33;;;5.40;99.90;;;;;;5056279;28;20537;-48
2023/02/01 01:49:51;;;;;;;15.17;3.90;;;5.60;99.90;;;;;;5073736;28;20573;-47
2023/02/01 01:52:19;;;;;;;18.70;4.43;;;6.00;99.90;;;;;;5056213;28;20438;-48
2023/02/01 01:54:49;;;;;;;22.70;5.43;;;5.60;99.90;;;;;;5055986;28;20243;-48
2023/02/01 01:57:20;;;;;;;21.33;5.07;;;5.70;99.90;;;;;;5074193;28;20500;-48
2023/02/01 01:59:51;;;;;;;20.40;3.93;;;5.70;99.90;;;;;;5056097;28;20953;-48
2023/02/01 02:02:18;;;;;;;24.27;4.65;;;4.90;99.90;;;;;;5074219;28;20400;-48
2023/02/01 02:04:47;;;;;;;21.43;5.30;;;5.40;99.90;;;;;;5056016;28;20226;-48
2023/02/01 02:07:18;;;;;;;24.03;4.03;;;5.30;99.90;;;;;;5074133;28;20594;-48
2023/02/01 02:09:45;;;;;;;23.53;4.20;;;5.60;99.90;;;;;;5055760;28;20481;-48
2023/02/01 02:12:11;;;;;;;15.10;4.43;;;5.30;99.90;;;;;;5073965;28;20916;-48
2023/02/01 02:14:39;;;;;;;16.80;3.83;;;5.20;99.90;;;;;;5073829;28;20453;-48
2023/02/01 02:17:19;;;;;;;14.75;3.70;;;5.40;99.90;;;;;;5073779;28;20526;-49
2023/02/01 02:20:23;;;;;;;20.33;4.70;;;5.40;99.90;;;;;;5073569;28;20656;-49
2023/02/01 02:23:13;;;;;;;18.93;3.93;;;5.40;99.90;;;;;;5073976;28;20406;-48
2023/02/01 02:26:22;;;;;;;23.40;3.77;;;5.50;99.90;;;;;;5073587;28;20759;-49
2023/02/01 02:29:23;;;;;;;18.57;4.00;;;5.50;99.90;;;;;;5009139;28;20898;-49
2023/02/01 02:32:05;;;;;;;13.60;4.40;;;5.70;99.90;;;;;;5055622;28;20946;-48
2023/02/01 02:34:39;;;;;;;13.27;3.60;;;5.30;99.90;;;;;;5073250;28;20451;-48
2023/02/01 02:37:14;;;;;;;19.60;3.90;;;5.60;99.90;;;;;;5055345;28;20413;-48
2023/02/01 02:39:50;;;;;;;20.10;3.50;;;5.50;99.90;;;;;;5055133;28;20422;-49
2023/02/01 02:48:03;;;;;;;18.10;3.90;;;4.90;99.90;;;;;;5055391;28;20895;-49
2023/02/01 03:04:28;;;;;;;16.63;4.30;;;5.70;99.90;;;;;;5072629;28;20421;-48
2023/02/01 03:06:57;;;;;;;21.47;4.33;;;5.60;99.90;;;;;;5072846;28;20420;-48
2023/02/01 03:09:31;;;;;;;20.90;4.37;;;5.60;99.90;;;;;;5054340;28;20445;-48
2023/02/01 03:14:51;;;;;;;18.33;4.83;;;5.80;99.90;;;;;;5054959;28;20469;-49
2023/02/01 03:17:22;;;;;;;20.60;5.00;;;5.70;99.90;;;;;;5054906;28;20924;-49
2023/02/01 03:19:52;;;;;;;16.03;3.80;;;5.50;99.90;;;;;;5054084;28;20615;-48
2023/02/01 03:22:23;;;;;;;18.80;4.67;;;5.60;99.90;;;;;;5054587;28;20569;-48
2023/02/01 03:24:54;;;;;;;26.77;4.13;;;5.60;99.90;;;;;;5054250;28;20568;-49
2023/02/01 03:27:25;;;;;;;22.57;4.17;;;5.60;99.90;;;;;;5072202;28;20432;-49
2023/02/01 03:29:58;;;;;;;13.30;4.10;;;5.80;99.90;;;;;;5053845;28;20459;-48
2023/02/01 03:32:26;;;;;;;28.23;6.50;;;5.80;99.90;;;;;;5054450;28;20450;-48
2023/02/01 03:34:53;;;;;;;19.33;5.23;;;5.70;99.90;;;;;;5054129;28;20508;-49
2023/02/01 03:37:26;;;;;;;15.67;3.63;;;5.80;99.90;;;;;;5054076;28;21006;-49
2023/02/01 03:40:00;;;;;;;22.77;4.30;;;5.60;99.90;;;;;;5071744;28;20825;-48
2023/02/01 03:42:34;;;;;;;15.33;3.80;;;5.40;99.90;;;;;;5054156;28;20519;-48
2023/02/01 03:45:08;;;;;;;18.80;4.77;;;5.80;99.90;;;;;;5053873;28;20579;-47
2023/02/01 03:47:38;;;;;;;15.60;4.88;;;5.50;99.90;;;;;;5054044;28;20903;-49
2023/02/01 03:50:08;;;;;;;16.00;4.23;;;5.60;99.90;;;;;;5071529;28;20207;-48
2023/02/01 03:52:40;;;;;;;24.53;5.03;;;5.60;99.90;;;;;;5072119;28;20919;-49
2023/02/01 03:55:08;;;;;;;12.43;3.50;;;5.40;99.90;;;;;;5053423;28;20633;-49
2023/02/01 03:57:40;;;;;;;20.80;5.23;;;5.70;99.90;;;;;;5053887;28;20429;-49
2023/02/01 04:00:11;;;;;;;26.07;5.53;;;5.70;99.90;;;;;;5053601;28;20442;-48
2023/02/01 04:02:41;;;;;;;25.67;5.67;;;5.50;99.90;;;;;;5072143;28;20452;-48
2023/02/01 04:05:09;;;;;;;20.43;4.90;;;5.70;99.90;;;;;;5053887;28;20442;-49
2023/02/01 04:07:37;;;;;;;19.00;5.35;;;5.40;99.90;;;;;;5053897;28;20777;-48
2023/02/01 04:10:04;;;;;;;23.17;4.88;;;5.70;99.90;;;;;;5071473;28;20221;-47
2023/02/01 04:12:31;;;;;;;16.37;4.20;;;5.50;99.90;;;;;;5071947;28;20664;-47
2023/02/01 04:14:58;;;;;;;16.93;4.30;;;5.70;99.90;;;;;;5071607;28;20481;-49
2023/02/01 04:17:24;;;;;;;24.07;4.80;;;5.80;99.90;;;;;;5071760;28;20889;-48
2023/02/01 04:19:51;;;;;;;21.33;4.80;;;5.90;99.90;;;;;;5071361;28;20411;-49
2023/02/01 04:22:18;;;;;;;16.77;4.87;;;5.80;99.90;;;;;;5053694;28;20205;-48
2023/02/01 04:24:46;;;;;;;19.43;4.77;;;5.90;99.90;;;;;;5071516;28;20443;-48
2023/02/01 04:27:13;;;;;;;15.93;4.17;;;5.50;99.90;;;;;;5071728;28;20424;-47
2023/02/01 04:29:40;;;;;;;24.30;5.50;;;5.90;99.90;;;;;;5071112;28;20516;-48
2023/02/01 04:32:07;;;;;;;14.63;4.47;;;5.90;99.90;;;;;;5071541;28;20415;-49
2023/02/01 04:34:34;;;;;;;14.80;4.43;;;6.10;99.90;;;;;;5071376;28;20458;-48
2023/02/01 04:37:01;;;;;;;21.37;5.00;;;6.00;99.90;;;;;;5071318;28;20416;-57
2023/02/01 04:39:27;;;;;;;22.53;4.70;;;6.00;99.90;;;;;;5070987;28;20437;-48
2023/02/01 04:41:55;;;;;;;12.17;3.83;;;5.90;99.90;;;;;;5071406;28;20912;-48
2023/02/01 04:44:22;;;;;;;21.83;4.63;;;6.10;99.90;;;;;;5053272;28;20458;-49
2023/02/01 04:46:49;;;;;;;19.47;4.17;;;6.00;99.90;;;;;;5071395;28;20438;-48
2023/02/01 04:49:15;;;;;;;15.47;4.17;;;6.20;99.90;;;;;;5070839;28;20459;-49
2023/02/01 04:51:43;;;;;;;25.40;5.40;;;6.30;99.90;;;;;;5071378;28;20912;-49
2023/02/01 04:54:11;;;;;;;13.37;4.47;;;6.20;99.90;;;;;;5071566;28;20501;-48
2023/02/01 04:56:38;;;;;;;25.43;5.70;;;6.20;99.90;;;;;;5071299;28;20447;-49
2023/02/01 04:59:06;;;;;;;24.70;5.63;;;6.40;99.90;;;;;;5070960;28;20417;-48
2023/02/01 05:01:33;;;;;;;20.90;5.47;;;6.30;99.90;;;;;;5071271;28;20408;-49
2023/02/01 05:04:00;;;;;;;10.70;4.30;;;6.20;99.90;;;;;;5071100;28;20455;-49
2023/02/01 05:06:27;;;;;;;18.50;5.07;;;6.40;99.90;;;;;;5071120;28;20409;-49
2023/02/01 05:08:53;;;;;;;14.20;4.33;;;6.10;99.90;;;;;;5074067;28;20421;-49
2023/02/01 05:14:05;;;;;;;18.17;4.40;;;6.20;99.90;;;;;;5074443;28;20519;-54
2023/02/01 05:16:32;;;;;;;20.80;5.73;;;6.30;99.90;;;;;;5056696;28;20427;-49
2023/02/01 05:18:59;;;;;;;16.50;4.53;;;6.40;99.90;;;;;;5074124;28;20925;-49
2023/02/01 05:21:25;;;;;;;14.63;4.73;;;6.50;99.90;;;;;;5074465;28;20431;-48
2023/02/01 05:24:12;;;;;;;17.40;4.10;;;5.80;99.90;;;;;;5074344;28;20417;-49
2023/02/01 05:26:39;;;;;;;15.20;4.10;;;6.70;99.90;;;;;;5074492;28;20434;-48
2023/02/01 05:29:09;;;;;;;22.07;5.03;;;6.60;99.90;;;;;;5074125;28;20434;-48
2023/02/01 05:31:35;;;;;;;18.73;4.40;;;6.50;99.90;;;;;;5074367;28;20898;-49
2023/02/01 05:34:02;;;;;;;17.23;4.30;;;6.60;99.90;;;;;;5074357;28;20463;-49
2023/02/01 05:36:29;;;;;;;23.80;4.20;;;6.50;99.90;;;;;;5074108;28;20808;-49
2023/02/01 05:38:55;;;;;;;23.23;4.77;;;6.50;99.90;;;;;;5073823;28;20406;-48
2023/02/01 05:41:22;;;;;;;26.93;5.70;;;6.40;99.90;;;;;;5074326;28;20402;-49
2023/02/01 05:43:49;;;;;;;19.77;4.43;;;6.40;99.90;;;;;;5085049;22;20892;-52
2023/02/01 05:46:17;;;;;;;14.83;5.60;;;6.40;99.90;;;;;;5053909;28;20408;-52
2023/02/01 05:48:44;;;;;;;18.37;4.63;;;6.50;99.90;;;;;;5053509;28;20431;-52
2023/02/01 05:51:11;;;;;;;10.90;4.67;;;6.50;99.90;;;;;;5053720;28;20458;-51
2023/02/01 05:53:38;;;;;;;22.10;5.20;;;6.60;99.90;;;;;;5035874;28;20989;-51
2023/02/01 05:56:05;;;;;;;22.23;5.47;;;6.40;99.90;;;;;;5053729;28;20435;-51
2023/02/01 05:58:32;;;;;;;21.53;3.83;;;6.80;99.90;;;;;;5035573;28;20477;-51
2023/02/01 06:01:00;;;;;;;24.27;5.30;;;6.50;99.90;;;;;;5053750;28;20411;-52
2023/02/01 06:03:28;;;;;;;18.10;5.20;;;6.60;99.90;;;;;;5053902;28;20404;-52
2023/02/01 06:05:54;;;;;;;9.70;3.33;;;6.70;99.90;;;;;;5053764;28;20437;-51
2023/02/01 06:08:21;;;;;;;15.83;4.60;;;6.80;99.90;;;;;;5053344;28;20411;-49
2023/02/01 06:10:48;;;;;;;19.63;4.77;;;6.20;99.90;;;;;;5053825;28;20479;-50
2023/02/01 06:13:14;;;;;;;19.50;3.97;;;6.50;99.90;;;;;;5053605;28;20410;-51
2023/02/01 06:15:43;;;;;;;18.17;5.00;;;6.50;99.90;;;;;;5053628;28;20460;-51
2023/02/01 06:18:10;;;;;;;11.20;4.23;;;6.00;99.90;;;;;;5052557;28;20536;-52
2023/02/01 06:20:38;;;;;;;21.23;5.00;;;6.50;99.90;;;;;;5053578;28;20407;-53
2023/02/01 06:23:05;;;;;;;16.83;4.50;;;6.30;99.90;;;;;;5053718;28;20498;-51
2023/02/01 06:25:32;;;;;;;17.70;5.10;;;6.60;99.90;;;;;;5053052;28;20464;-50
2023/02/01 06:28:01;;;;;;;18.47;5.07;;;6.70;99.90;;;;;;5053289;28;20499;-51
2023/02/01 06:30:27;;;;;;;19.53;4.87;;;6.40;99.90;;;;;;5052737;28;20818;-52
2023/02/01 06:32:54;;;;;;;26.80;5.97;;;6.60;99.90;;;;;;5035395;28;20448;-51
2023/02/01 06:35:21;;;;;;;19.10;5.60;;;6.50;99.90;;;;;;5053199;28;20587;-53
2023/02/01 06:37:49;;;;;;;20.13;5.80;;;6.60;99.90;;;;;;5053287;28;20503;-52
2023/02/01 06:40:16;;;;;;;12.80;4.40;;;6.80;99.90;;;;;;5052760;28;20420;-51
2023/02/01 06:42:42;;;;;;;19.03;7.30;;;6.80;99.90;;;;;;5053299;28;20414;-51
2023/02/01 06:45:10;;;;;;;25.60;7.23;;;6.60;99.90;;;;;;5053291;28;20781;-51
2023/02/01 06:47:37;;;;;;;17.83;6.97;;;6.90;99.90;;;;;;5053222;28;20949;-50
2023/02/01 06:50:04;;;;;;;21.40;5.63;;;6.80;99.90;;;;;;5052343;28;20521;-52
2023/02/01 06:52:31;;;;;;;22.53;7.23;;;6.90;99.90;;;;;;5053199;28;20481;-51
2023/02/01 06:54:59;;;;;;;17.57;5.87;;;6.70;99.90;;;;;;5053327;28;20535;-54
2023/02/01 06:57:30;;;;;;;19.73;6.50;;;6.60;99.90;;;;;;5052547;28;20431;-51
2023/02/01 06:59:56;;;;;;;23.73;5.57;;;7.00;99.90;;;;;;5052099;28;20412;-52
2023/02/01 07:02:23;;;;;;;15.17;5.80;;;7.00;99.90;;;;;;5052792;28;20402;-51
2023/02/01 07:04:49;;;;;;;16.53;4.80;;;6.60;99.90;;;;;;5054830;28;20429;-52
2023/02/01 07:07:16;;;;;;;17.27;5.80;;;6.60;99.90;;;;;;5052554;28;20410;-51
2023/02/01 07:09:43;;;;;;;19.20;5.70;;;6.70;99.90;;;;;;5051859;28;20458;-52
2023/02/01 07:12:11;;;;;;;18.97;6.00;;;7.00;99.90;;;;;;5034032;28;21030;-53
2023/02/01 07:14:38;;;;;;;17.47;6.17;;;6.70;99.90;;;;;;5052217;28;20989;-52
2023/02/01 07:17:04;;;;;;;17.77;5.40;;;6.90;99.90;;;;;;5052183;28;20978;-51
2023/02/01 07:19:31;;;;;;;19.00;4.90;;;6.80;99.90;;;;;;5051797;28;20411;-52
2023/02/01 07:21:57;;;;;;;13.93;5.43;;;7.00;99.90;;;;;;5052292;28;20413;-51
2023/02/01 07:24:24;;;;;;;17.67;5.30;;;6.30;99.90;;;;;;5051917;28;20817;-51
2023/02/01 07:26:51;;;;;;;18.70;5.47;;;6.20;99.90;;;;;;5051771;28;20410;-52
2023/02/01 07:29:20;;;;;;;17.73;4.30;;;6.70;99.90;;;;;;5051749;28;20504;-51
2023/02/01 07:31:47;;;;;;;22.23;5.10;;;6.40;99.90;;;;;;5051391;28;20698;-54
2023/02/01 07:34:13;;;;;;;14.40;5.93;;;6.70;99.90;;;;;;5051915;28;20456;-51
2023/02/01 07:36:40;;;;;;;18.50;4.90;;;6.80;99.90;;;;;;5051902;28;20434;-53
2023/02/01 07:39:07;;;;;;;18.93;5.57;;;7.10;99.90;;;;;;5051543;28;20503;-54
2023/02/01 07:41:33;;;;;;;15.33;4.90;;;6.40;99.90;;;;;;5052643;28;20444;-51
2023/02/01 07:44:01;;;;;;;20.73;5.20;;;7.00;99.90;;;;;;5051756;28;20462;-56
2023/02/01 07:46:29;;;;;;;12.40;5.53;;;7.10;99.90;;;;;;5051579;28;20425;-51
2023/02/01 07:48:56;;;;;;;18.30;5.70;;;7.10;99.90;;;;;;5051226;28;20485;-50
2023/02/01 07:51:23;;;;;;;21.80;7.77;;;6.90;99.90;;;;;;5051619;28;20444;-54
2023/02/01 07:53:49;;;;;;;22.67;5.20;;;7.10;99.90;;;;;;5051441;28;20439;-53
2023/02/01 07:56:18;;;;;;;21.40;4.53;;;6.90;99.90;;;;;;5051295;28;20419;-51
2023/02/01 07:58:48;;;;;;;20.73;4.93;;;7.10;99.90;;;;;;5033421;28;20447;-52
2023/02/01 08:01:21;;;;;;;13.30;5.33;;;6.90;99.90;;;;;;5051470;28;20415;-53
2023/02/01 08:03:50;;;;;;;20.80;5.30;;;7.20;99.90;;;;;;5051721;28;20416;-53
2023/02/01 08:06:16;;;;;;;15.00;4.50;;;6.80;99.90;;;;;;5051339;28;20926;-51
2023/02/01 08:08:44;;;;;;;13.20;5.37;;;6.90;99.90;;;;;;5050900;28;20433;-54
2023/02/01 08:11:11;;;;;;;21.33;6.10;;;6.80;99.90;;;;;;5051370;28;20447;-53
2023/02/01 08:13:39;;;;;;;12.60;4.33;;;6.80;99.90;;;;;;5052000;28;20929;-51
2023/02/01 08:16:07;;;;;;;22.20;4.60;;;6.60;99.90;;;;;;5052407;28;20422;-54
2023/02/01 08:18:34;;;;;;;10.60;4.27;;;6.60;99.90;;;;;;5051152;28;20804;-53
2023/02/01 08:21:06;;;;;;;17.57;6.10;;;6.70;99.90;;;;;;5051671;28;20444;-51
2023/02/01 08:23:34;;;;;;;15.60;5.73;;;6.90;99.90;;;;;;5051448;28;20957;-51
2023/02/01 08:26:14;;;;;;;15.47;4.43;;;6.60;99.90;;;;;;5051587;28;20443;-52
2023/02/01 08:28:41;;;;;;;13.27;5.03;;;6.90;99.90;;;;;;5051234;28;20411;-52
2023/02/01 08:31:09;;;;;;;18.53;5.67;;;6.50;99.90;;;;;;5051127;28;20444;-51
2023/02/01 08:33:37;;;;;;;11.67;4.63;;;6.80;99.90;;;;;;5051050;28;20500;-51
2023/02/01 08:36:07;;;;;;;9.50;4.20;;;6.60;99.90;;;;;;5033468;28;20456;-51
2023/02/01 08:38:35;;;;;;;11.73;4.80;;;6.40;99.90;;;;;;5050953;28;20406;-52
2023/02/01 08:41:06;;;;;;;14.30;5.03;;;6.40;99.90;;;;;;5051571;28;20429;-51
2023/02/01 08:43:33;;;;;;;10.30;4.30;;;6.50;99.90;;;;;;5054789;28;20936;-50
2023/02/01 08:45:59;;;;;;;14.33;5.77;;;6.40;99.90;;;;;;5055271;28;20411;-51
2023/02/01 08:48:26;;;;;;;13.70;5.10;;;6.30;99.90;;;;;;5055001;28;20423;-52
2023/02/01 08:50:52;;;;;;;11.93;4.20;;;6.30;99.90;;;;;;5055025;28;20984;-52
2023/02/01 08:53:20;;;;;;;10.70;4.80;;;6.30;99.90;;;;;;5054807;28;20442;-51
2023/02/01 08:55:47;;;;;;;9.00;4.00;;;5.80;99.90;;;;;;5055028;28;20423;-53
2023/02/01 08:58:16;;;;;;;10.50;6.07;;;6.20;99.90;;;;;;5055119;28;20403;-52
2023/02/01 09:00:44;;;;;;;8.60;4.20;;;6.40;99.90;;;;;;5055132;28;20443;-51
2023/02/01 09:03:11;;;;;;;10.00;3.60;;;6.50;99.90;;;;;;5054667;28;20442;-51
2023/02/01 09:05:38;;;;;;;8.50;3.77;;;6.50;99.90;;;;;;5054429;28;20447;-51
2023/02/01 09:08:05;;;;;;;7.07;3.60;;;6.50;99.90;;;;;;5054349;28;20440;-52
2023/02/01 09:10:34;;;;;;;11.83;5.60;;;6.40;99.90;;;;;;5054843;28;20446;-52
2023/02/01 09:13:00;;;;;;;6.50;3.97;;;6.30;99.90;;;;;;5054940;28;20763;-52
2023/02/01 09:15:27;;;;;;;12.93;3.80;;;6.50;99.90;;;;;;5054254;28;20538;-51
2023/02/01 09:17:54;;;;;;;10.93;3.83;;;6.60;99.90;;;;;;5054486;28;20432;-51
2023/02/01 09:20:23;;;;;;;7.17;3.97;;;6.40;99.90;;;;;;5054014;28;20445;-51
2023/02/01 09:22:51;;;;;;;9.67;3.33;;;6.30;99.90;;;;;;5054367;28;20444;-50
2023/02/01 09:25:17;;;;;;;6.67;3.30;;;6.50;99.90;;;;;;5054295;28;20457;-51
2023/02/01 09:27:46;;;;;;;5.97;3.03;;;7.00;99.90;;;;;;5054176;28;20439;-51
2023/02/01 09:30:13;;;;;;;6.47;2.70;;;6.00;99.90;;;;;;5053872;28;20433;-51
2023/02/01 09:32:39;;;;;;;6.73;2.47;;;6.50;99.90;;;;;;5054158;28;20480;-52
2023/02/01 09:35:07;;;;;;;8.93;3.20;;;6.60;99.90;;;;;;5054984;28;20547;-51
2023/02/01 09:37:33;;;;;;;6.10;2.13;;;6.80;99.90;;;;;;5055283;28;20433;-53
2023/02/01 09:40:00;;;;;;;4.17;2.90;;;6.60;99.90;;;;;;5053432;28;20791;-51
2023/02/01 09:42:52;;;;;;;5.20;2.47;;;6.80;99.90;;;;;;5053918;28;20437;-52
2023/02/01 09:45:24;;;;;;;3.20;1.83;;;6.60;99.90;;;;;;5037050;28;20480;-51
2023/02/01 09:47:56;;;;;;;5.57;1.77;;;6.60;99.90;;;;;;5054107;28;20434;-51
2023/02/01 09:50:32;;;;;;;3.80;2.10;;;6.40;99.90;;;;;;5053857;28;20436;-51
2023/02/01 09:53:05;;;;;;;3.47;1.70;;;6.60;99.90;;;;;;5052875;28;20439;-52
2023/02/01 09:55:38;;;;;;;4.90;1.83;;;6.70;99.90;;;;;;5053579;28;20461;-51
2023/02/01 09:58:08;;;;;;;3.77;2.00;;;6.70;99.90;;;;;;5053893;28;20758;-51
2023/02/01 10:00:39;;;;;;;3.30;1.50;;;7.10;99.90;;;;;;5053515;28;20955;-51
2023/02/01 10:03:11;;;;;;;5.00;2.07;;;6.70;99.90;;;;;;5053864;28;20437;-51
2023/02/01 10:05:54;;;;;;;6.17;1.73;;;6.60;99.90;;;;;;5053806;28;20431;-53
2023/02/01 10:08:28;;;;;;;4.27;1.83;;;6.20;99.90;;;;;;5035307;28;20427;-52
2023/02/01 10:11:05;;;;;;;4.40;2.00;;;7.00;99.90;;;;;;5053533;28;20473;-51
2023/02/01 10:13:46;;;;;;;3.93;1.47;;;6.60;99.90;;;;;;5053637;28;20415;-51
2023/02/01 10:16:24;;;;;;;3.20;1.50;;;6.50;99.90;;;;;;5035514;28;20451;-50
2023/02/01 10:19:14;;;;;;;8.43;1.97;;;6.40;99.90;;;;;;5053132;28;20406;-51
2023/02/01 10:21:51;;;;;;;4.00;1.90;;;6.40;99.90;;;;;;5053108;28;20907;-51
2023/02/01 10:24:35;;;;;;;4.73;1.97;;;6.60;99.90;;;;;;5053347;28;20791;-51
2023/02/01 10:27:09;;;;;;;5.60;2.17;;;6.50;99.90;;;;;;5053395;28;20422;-51
2023/02/01 10:29:38;;;;;;;6.80;2.40;;;6.50;99.90;;;;;;5052547;28;20434;-51
2023/02/01 10:32:13;;;;;;;8.23;2.67;;;6.50;99.90;;;;;;5053053;28;20467;-52
2023/02/01 10:34:41;;;;;;;5.70;1.87;;;6.50;99.90;;;;;;5052877;28;20455;-52
2023/02/01 10:37:21;;;;;;;7.80;2.80;;;6.50;99.90;;;;;;5052881;28;20937;-51
2023/02/01 10:39:49;;;;;;;8.60;2.87;;;6.50;99.90;;;;;;5052468;28;20466;-52
2023/02/01 10:42:16;;;;;;;5.93;2.63;;;7.00;99.90;;;;;;5052981;28;20773;-51
2023/02/01 10:44:47;;;;;;;7.53;2.90;;;6.40;99.90;;;;;;5052516;28;20458;-50
2023/02/01 10:47:16;;;;;;;7.33;2.90;;;7.10;99.90;;;;;;5052599;28;20475;-50
2023/02/01 10:49:51;;;;;;;5.67;2.10;;;7.00;99.90;;;;;;5034521;28;20449;-52
2023/02/01 10:52:22;;;;;;;10.03;4.13;;;7.00;99.90;;;;;;5053023;28;20533;-52
2023/02/01 10:54:48;;;;;;;10.40;2.97;;;7.20;99.90;;;;;;5052991;28;20426;-52
2023/02/01 10:57:23;;;;;;;9.00;2.90;;;7.00;99.90;;;;;;5036468;28;20463;-52
2023/02/01 10:59:50;;;;;;;7.30;3.30;;;7.20;99.90;;;;;;5034727;28;20547;-50
2023/02/01 11:02:27;;;;;;;6.33;2.30;;;6.80;99.90;;;;;;5035113;28;20445;-51
2023/02/01 11:05:01;;;;;;;7.50;2.73;;;6.80;99.90;;;;;;5052674;28;20456;-51
2023/02/01 11:07:29;;;;;;;5.90;2.87;;;6.30;99.90;;;;;;5052262;28;20442;-52
2023/02/01 11:09:57;;;;;;;5.60;2.97;;;7.10;99.90;;;;;;5052010;28;20991;-51
2023/02/01 11:12:32;;;;;;;5.80;3.23;;;6.30;99.90;;;;;;5052450;28;20527;-51
2023/02/01 11:15:02;;;;;;;9.90;4.30;;;6.90;99.90;;;;;;5034692;28;20443;-51
2023/02/01 11:17:36;;;;;;;8.50;3.60;;;6.90;99.90;;;;;;5034455;28;20924;-52
2023/02/01 11:20:07;;;;;;;13.13;3.63;;;6.60;99.90;;;;;;5051831;28;20440;-50
2023/02/01 11:22:33;;;;;;;8.63;3.00;;;7.00;99.90;;;;;;5052272;28;20521;-52
2023/02/01 11:25:02;;;;;;;9.97;3.63;;;7.40;99.90;;;;;;5052243;28;20507;-52
2023/02/01 11:27:28;;;;;;;13.43;3.00;;;7.10;99.90;;;;;;5052135;28;20941;-52
2023/02/01 11:30:00;;;;;;;8.13;3.60;;;7.30;99.90;;;;;;5051602;28;20410;-51
2023/02/01 11:32:28;;;;;;;12.20;2.70;;;7.40;99.90;;;;;;5051989;28;20463;-51
2023/02/01 11:35:00;;;;;;;7.60;2.63;;;7.30;99.90;;;;;;5052112;28;20421;-51
2023/02/01 11:37:31;;;;;;;7.67;3.40;;;7.50;99.90;;;;;;5052011;28;20452;-51
2023/02/01 11:39:59;;;;;;;7.80;3.70;;;7.70;99.90;;;;;;5051622;28;20413;-52
2023/02/01 11:42:27;;;;;;;5.20;3.50;;;7.50;99.90;;;;;;5033770;28;20433;-52
2023/02/01 11:45:19;;;;;;;12.90;3.03;;;7.50;99.90;;;;;;5085198;22;20471;-49
2023/02/01 11:47:46;;;;;;;12.10;3.27;;;7.80;99.90;;;;;;5072785;28;20442;-49
2023/02/01 11:50:17;;;;;;;8.83;2.70;;;7.80;99.90;;;;;;5071405;28;20417;-49
2023/02/01 11:53:07;;;;;;;6.87;3.27;;;7.90;99.90;;;;;;5053529;28;20962;-49
2023/02/01 11:55:50;;;;;;;8.10;2.90;;;8.10;99.90;;;;;;5071366;28;20447;-50
2023/02/01 11:58:27;;;;;;;9.10;4.73;;;7.90;99.90;;;;;;5071589;28;20831;-49
2023/02/01 12:01:11;;;;;;;10.87;4.20;;;8.00;99.90;;;;;;5071708;28;20412;-49
2023/02/01 12:04:00;;;;;;;9.90;3.00;;;8.30;99.90;;;;;;5071511;28;20415;-48
2023/02/01 12:06:36;;;;;;;13.00;3.50;;;8.00;99.90;;;;;;5071718;28;20433;-48
2023/02/01 12:09:20;;;;;;;13.93;3.70;;;8.10;99.90;;;;;;5070713;28;20817;-49
2023/02/01 12:11:57;;;;;;;14.30;4.00;;;8.30;99.90;;;;;;5071501;28;20966;-49
2023/02/01 12:14:36;;;;;;;9.60;3.10;;;8.40;99.90;;;;;;5071619;28;20424;-49
2023/02/01 12:17:19;;;;;;;9.73;2.80;;;8.20;99.90;;;;;;5073518;28;20443;-50
2023/02/01 12:20:11;;;;;;;8.40;3.60;;;8.00;99.90;;;;;;5075509;28;20428;-49
2023/02/01 12:22:51;;;;;;;10.07;2.77;;;8.50;99.90;;;;;;5075372;28;20495;-50
2023/02/01 12:25:26;;;;;;;11.70;4.10;;;8.50;99.90;;;;;;5075176;28;20520;-50
2023/02/01 12:28:18;;;;;;;9.17;2.70;;;8.20;99.90;;;;;;5074908;28;20486;-49
2023/02/01 12:31:08;;;;;;;7.60;2.80;;;8.30;99.90;;;;;;5075774;28;20927;-49
2023/02/01 12:33:49;;;;;;;8.23;2.30;;;8.40;99.90;;;;;;5075031;28;20507;-47
2023/02/01 12:36:25;;;;;;;10.93;3.37;;;8.70;99.90;;;;;;5075404;28;20452;-49
2023/02/01 12:39:03;;;;;;;11.57;3.63;;;8.60;99.90;;;;;;5075371;28;20959;-50
2023/02/01 12:41:52;;;;;;;7.43;2.23;;;8.40;99.90;;;;;;5076044;28;20423;-50
2023/02/01 12:44:29;;;;;;;7.53;2.83;;;8.50;99.90;;;;;;5074996;28;20532;-49
2023/02/01 12:47:00;;;;;;;10.80;3.27;;;8.10;99.90;;;;;;5076178;28;20752;-49
2023/02/01 12:49:35;;;;;;;6.57;3.00;;;8.20;99.90;;;;;;5074555;28;20461;-48
2023/02/01 12:52:05;;;;;;;10.40;3.00;;;8.10;99.90;;;;;;5074839;28;20488;-48
2023/02/01 12:54:39;;;;;;;9.70;3.60;;;8.20;99.90;;;;;;5074634;28;20979;-49
2023/02/01 12:57:11;;;;;;;13.43;4.47;;;8.20;99.90;;;;;;5074356;28;20444;-48
2023/02/01 12:59:42;;;;;;;18.63;3.70;;;8.10;99.90;;;;;;5074501;28;20412;-49
2023/02/01 13:02:17;;;;;;;9.30;3.33;;;8.70;99.90;;;;;;5074531;28;20407;-48
2023/02/01 13:05:01;;;;;;;8.33;3.00;;;8.10;99.90;;;;;;5074239;28;20790;-49
2023/02/01 13:07:32;;;;;;;10.23;2.80;;;8.10;99.90;;;;;;5074338;28;20448;-49
2023/02/01 13:10:04;;;;;;;8.30;2.63;;;8.10;99.90;;;;;;5074108;28;20423;-49
2023/02/01 13:12:36;;;;;;;7.10;2.90;;;8.00;99.90;;;;;;5074267;28;20567;-49
2023/02/01 13:15:12;;;;;;;8.03;2.73;;;8.30;99.90;;;;;;5074404;28;20965;-48
2023/02/01 13:17:40;;;;;;;6.23;3.43;;;8.40;99.90;;;;;;5074550;28;20502;-49
2023/02/01 13:20:16;;;;;;;10.37;3.43;;;8.10;99.90;;;;;;5074370;28;20767;-49
2023/02/01 13:22:46;;;;;;;13.00;2.97;;;8.10;99.90;;;;;;5074109;28;20441;-52
2023/02/01 13:25:18;;;;;;;3.67;1.60;;;7.60;99.90;;;;;;5073950;28;20857;-51
2023/02/01 13:27:46;;;;;;;5.63;2.27;;;7.80;99.90;;;;;;5073069;28;20438;-49
2023/02/01 13:30:19;;;;;;;6.93;1.90;;;7.80;99.90;;;;;;5073705;28;20443;-48
2023/02/01 13:33:13;;;;;;;8.37;2.80;;;7.70;99.90;;;;;;5073703;28;20444;-49